Port Maitland, Canada
Current Conditions -  °F | °C
As of 5:00 PM on Sunday 21 Dec 2014 (Local Time) from CYQI Reporting Station
Overcast Overcast  
Wind Chill: 28°   Ceiling: 3500
Heat Index: 34°   Visibility: 15mi
Dew Point: 30°   Wind: 7mph
Humidity: 87%   Direction: 40°NE
Pressure: 30.32"   Gusts: NA
Location:  43.97°N, 66.13°W
Report Text: CYQI 212100Z 04006KT 15SM OVC035 01/M01 A3032 RMK SC8 SLP271
Loading
Personal Weather Stations






























Interactive Weather Map New forecast layout! Learn more

10-Day Weather Forecast

Advertisements
Track Severe Weather on mobile